sensor_id;sensor_type;location;lat;lon;timestamp;P1;durP1;ratioP1;P2;durP2;ratioP2
42886;SDS011;29032;56.028;92.904;2023-03-11T00:04:33;6.37;;;4.73;;
42886;SDS011;29032;56.028;92.904;2023-03-11T00:09:35;5.70;;;3.70;;
42886;SDS011;29032;56.028;92.904;2023-03-11T00:14:37;4.10;;;3.43;;
42886;SDS011;29032;56.028;92.904;2023-03-11T00:19:41;5.70;;;3.87;;
42886;SDS011;29032;56.028;92.904;2023-03-11T00:24:43;5.73;;;3.67;;
42886;SDS011;29032;56.028;92.904;2023-03-11T00:29:45;6.90;;;3.93;;
42886;SDS011;29032;56.028;92.904;2023-03-11T00:34:48;3.70;;;3.17;;
42886;SDS011;29032;56.028;92.904;2023-03-11T00:39:50;2.80;;;2.60;;
42886;SDS011;29032;56.028;92.904;2023-03-11T00:44:53;5.13;;;4.10;;
42886;SDS011;29032;56.028;92.904;2023-03-11T00:49:56;5.70;;;3.60;;
42886;SDS011;29032;56.028;92.904;2023-03-11T00:54:58;7.40;;;4.07;;
42886;SDS011;29032;56.028;92.904;2023-03-11T01:00:01;5.17;;;4.17;;
42886;SDS011;29032;56.028;92.904;2023-03-11T01:05:06;6.17;;;4.20;;
42886;SDS011;29032;56.028;92.904;2023-03-11T01:10:09;6.80;;;3.90;;
42886;SDS011;29032;56.028;92.904;2023-03-11T01:15:14;4.93;;;4.17;;
42886;SDS011;29032;56.028;92.904;2023-03-11T01:20:21;4.60;;;3.38;;
42886;SDS011;29032;56.028;92.904;2023-03-11T01:25:23;3.93;;;3.30;;
42886;SDS011;29032;56.028;92.904;2023-03-11T01:30:26;4.33;;;3.00;;
42886;SDS011;29032;56.028;92.904;2023-03-11T01:35:30;4.00;;;2.93;;
42886;SDS011;29032;56.028;92.904;2023-03-11T01:40:34;6.57;;;4.10;;
42886;SDS011;29032;56.028;92.904;2023-03-11T01:46:01;4.70;;;3.40;;
42886;SDS011;29032;56.028;92.904;2023-03-11T01:51:13;3.20;;;2.83;;
42886;SDS011;29032;56.028;92.904;2023-03-11T01:56:18;5.47;;;3.53;;
42886;SDS011;29032;56.028;92.904;2023-03-11T02:01:21;3.57;;;2.97;;
42886;SDS011;29032;56.028;92.904;2023-03-11T02:06:26;4.27;;;3.20;;
42886;SDS011;29032;56.028;92.904;2023-03-11T02:11:29;3.53;;;3.13;;
42886;SDS011;29032;56.028;92.904;2023-03-11T02:16:33;4.50;;;3.43;;
42886;SDS011;29032;56.028;92.904;2023-03-11T02:21:38;6.87;;;3.23;;
42886;SDS011;29032;56.028;92.904;2023-03-11T02:26:48;5.73;;;3.40;;
42886;SDS011;29032;56.028;92.904;2023-03-11T02:31:53;4.80;;;3.47;;
42886;SDS011;29032;56.028;92.904;2023-03-11T02:36:57;4.87;;;3.80;;
42886;SDS011;29032;56.028;92.904;2023-03-11T02:42:02;4.60;;;3.87;;
42886;SDS011;29032;56.028;92.904;2023-03-11T02:47:07;3.53;;;3.07;;
42886;SDS011;29032;56.028;92.904;2023-03-11T02:52:11;3.73;;;3.10;;
42886;SDS011;29032;56.028;92.904;2023-03-11T02:57:14;5.43;;;3.70;;
42886;SDS011;29032;56.028;92.904;2023-03-11T03:02:17;4.00;;;3.00;;
42886;SDS011;29032;56.028;92.904;2023-03-11T03:07:19;3.83;;;2.43;;
42886;SDS011;29032;56.028;92.904;2023-03-11T03:12:23;6.33;;;3.80;;
42886;SDS011;29032;56.028;92.904;2023-03-11T03:17:25;3.20;;;2.90;;
42886;SDS011;29032;56.028;92.904;2023-03-11T03:22:28;4.90;;;3.10;;
42886;SDS011;29032;56.028;92.904;2023-03-11T03:27:33;5.63;;;3.50;;
42886;SDS011;29032;56.028;92.904;2023-03-11T03:32:36;3.90;;;3.10;;
42886;SDS011;29032;56.028;92.904;2023-03-11T03:37:43;5.10;;;3.13;;
42886;SDS011;29032;56.028;92.904;2023-03-11T03:42:46;5.77;;;3.37;;
42886;SDS011;29032;56.028;92.904;2023-03-11T03:47:49;3.73;;;3.27;;
42886;SDS011;29032;56.028;92.904;2023-03-11T03:52:52;4.00;;;3.60;;
42886;SDS011;29032;56.028;92.904;2023-03-11T03:57:58;5.10;;;3.47;;
42886;SDS011;29032;56.028;92.904;2023-03-11T04:03:04;4.00;;;3.20;;
42886;SDS011;29032;56.028;92.904;2023-03-11T04:13:25;3.73;;;3.30;;
42886;SDS011;29032;56.028;92.904;2023-03-11T04:18:27;5.70;;;2.70;;
42886;SDS011;29032;56.028;92.904;2023-03-11T04:23:30;3.73;;;2.83;;
42886;SDS011;29032;56.028;92.904;2023-03-11T04:28:34;3.03;;;2.73;;
42886;SDS011;29032;56.028;92.904;2023-03-11T04:33:36;5.10;;;3.10;;
42886;SDS011;29032;56.028;92.904;2023-03-11T04:38:40;3.20;;;2.60;;
42886;SDS011;29032;56.028;92.904;2023-03-11T04:43:46;3.43;;;3.00;;
42886;SDS011;29032;56.028;92.904;2023-03-11T04:48:49;3.00;;;2.60;;
42886;SDS011;29032;56.028;92.904;2023-03-11T04:53:51;3.53;;;2.80;;
42886;SDS011;29032;56.028;92.904;2023-03-11T04:58:55;3.57;;;2.50;;
42886;SDS011;29032;56.028;92.904;2023-03-11T05:03:59;3.60;;;2.40;;
42886;SDS011;29032;56.028;92.904;2023-03-11T05:09:01;2.63;;;2.43;;
42886;SDS011;29032;56.028;92.904;2023-03-11T05:14:06;3.03;;;2.43;;
42886;SDS011;29032;56.028;92.904;2023-03-11T05:19:08;2.53;;;2.20;;
42886;SDS011;29032;56.028;92.904;2023-03-11T05:24:10;2.57;;;2.37;;
42886;SDS011;29032;56.028;92.904;2023-03-11T05:29:14;2.77;;;2.20;;
42886;SDS011;29032;56.028;92.904;2023-03-11T05:34:16;3.53;;;2.77;;
42886;SDS011;29032;56.028;92.904;2023-03-11T05:39:19;3.07;;;2.50;;
42886;SDS011;29032;56.028;92.904;2023-03-11T05:44:23;2.90;;;2.53;;
42886;SDS011;29032;56.028;92.904;2023-03-11T05:49:27;3.07;;;2.73;;
42886;SDS011;29032;56.028;92.904;2023-03-11T05:54:30;2.70;;;2.50;;
42886;SDS011;29032;56.028;92.904;2023-03-11T05:59:33;2.90;;;2.43;;
42886;SDS011;29032;56.028;92.904;2023-03-11T06:04:38;2.30;;;2.10;;
42886;SDS011;29032;56.028;92.904;2023-03-11T06:09:43;3.23;;;2.60;;
42886;SDS011;29032;56.028;92.904;2023-03-11T06:14:51;5.57;;;2.70;;
42886;SDS011;29032;56.028;92.904;2023-03-11T06:19:54;2.77;;;2.33;;
42886;SDS011;29032;56.028;92.904;2023-03-11T06:24:56;2.83;;;2.30;;
42886;SDS011;29032;56.028;92.904;2023-03-11T06:30:01;2.33;;;2.13;;
42886;SDS011;29032;56.028;92.904;2023-03-11T06:35:06;2.30;;;2.10;;
42886;SDS011;29032;56.028;92.904;2023-03-11T06:40:09;3.40;;;2.03;;
42886;SDS011;29032;56.028;92.904;2023-03-11T06:45:13;3.27;;;2.97;;
42886;SDS011;29032;56.028;92.904;2023-03-11T06:50:17;2.50;;;2.30;;
42886;SDS011;29032;56.028;92.904;2023-03-11T06:55:20;2.30;;;2.10;;
42886;SDS011;29032;56.028;92.904;2023-03-11T07:00:24;4.53;;;2.63;;
42886;SDS011;29032;56.028;92.904;2023-03-11T07:05:30;2.83;;;2.27;;
42886;SDS011;29032;56.028;92.904;2023-03-11T07:15:41;2.77;;;2.20;;
42886;SDS011;29032;56.028;92.904;2023-03-11T07:20:43;2.47;;;2.27;;
42886;SDS011;29032;56.028;92.904;2023-03-11T07:25:45;3.67;;;2.40;;
42886;SDS011;29032;56.028;92.904;2023-03-11T07:30:49;2.53;;;2.10;;
42886;SDS011;29032;56.028;92.904;2023-03-11T07:35:51;3.63;;;2.10;;
42886;SDS011;29032;56.028;92.904;2023-03-11T07:40:56;2.40;;;2.20;;
42886;SDS011;29032;56.028;92.904;2023-03-11T07:46:05;2.63;;;2.43;;
42886;SDS011;29032;56.028;92.904;2023-03-11T07:51:09;2.20;;;2.00;;
42886;SDS011;29032;56.028;92.904;2023-03-11T07:56:13;2.33;;;2.13;;
42886;SDS011;29032;56.028;92.904;2023-03-11T08:01:21;1.80;;;1.70;;
42886;SDS011;29032;56.028;92.904;2023-03-11T08:06:26;2.70;;;2.00;;
42886;SDS011;29032;56.028;92.904;2023-03-11T08:11:30;2.20;;;2.00;;
42886;SDS011;29032;56.028;92.904;2023-03-11T08:16:34;2.10;;;1.90;;
42886;SDS011;29032;56.028;92.904;2023-03-11T08:21:37;1.93;;;1.80;;
42886;SDS011;29032;56.028;92.904;2023-03-11T08:26:39;3.67;;;2.47;;
42886;SDS011;29032;56.028;92.904;2023-03-11T08:31:43;1.93;;;1.83;;
42886;SDS011;29032;56.028;92.904;2023-03-11T08:36:45;2.87;;;1.93;;
42886;SDS011;29032;56.028;92.904;2023-03-11T08:41:47;2.40;;;2.20;;
42886;SDS011;29032;56.028;92.904;2023-03-11T08:46:51;2.33;;;2.13;;
42886;SDS011;29032;56.028;92.904;2023-03-11T08:51:53;1.90;;;1.80;;
42886;SDS011;29032;56.028;92.904;2023-03-11T08:56:55;1.93;;;1.83;;
42886;SDS011;29032;56.028;92.904;2023-03-11T09:01:59;2.10;;;1.80;;
42886;SDS011;29032;56.028;92.904;2023-03-11T09:07:01;1.73;;;1.60;;
42886;SDS011;29032;56.028;92.904;2023-03-11T09:12:03;2.67;;;2.10;;
42886;SDS011;29032;56.028;92.904;2023-03-11T09:17:07;3.23;;;1.80;;
42886;SDS011;29032;56.028;92.904;2023-03-11T09:22:10;2.97;;;2.40;;
42886;SDS011;29032;56.028;92.904;2023-03-11T09:27:12;2.63;;;2.10;;
42886;SDS011;29032;56.028;92.904;2023-03-11T09:32:16;2.77;;;2.20;;
42886;SDS011;29032;56.028;92.904;2023-03-11T09:37:18;4.43;;;2.10;;
42886;SDS011;29032;56.028;92.904;2023-03-11T09:42:21;5.07;;;2.23;;
42886;SDS011;29032;56.028;92.904;2023-03-11T09:47:37;2.40;;;2.20;;
42886;SDS011;29032;56.028;92.904;2023-03-11T09:52:45;2.67;;;2.20;;
42886;SDS011;29032;56.028;92.904;2023-03-11T09:58:10;3.40;;;2.50;;
42886;SDS011;29032;56.028;92.904;2023-03-11T10:08:37;4.30;;;1.93;;
42886;SDS011;29032;56.028;92.904;2023-03-11T10:13:44;3.07;;;2.23;;
42886;SDS011;29032;56.028;92.904;2023-03-11T10:19:02;2.50;;;2.30;;
42886;SDS011;29032;56.028;92.904;2023-03-11T10:24:19;2.43;;;2.00;;
42886;SDS011;29032;56.028;92.904;2023-03-11T10:29:41;6.10;;;1.97;;
42886;SDS011;29032;56.028;92.904;2023-03-11T10:34:53;6.17;;;3.00;;
42886;SDS011;29032;56.028;92.904;2023-03-11T10:40:00;2.10;;;1.90;;
42886;SDS011;29032;56.028;92.904;2023-03-11T10:45:10;3.50;;;1.73;;
42886;SDS011;29032;56.028;92.904;2023-03-11T10:50:16;2.28;;;2.08;;
42886;SDS011;29032;56.028;92.904;2023-03-11T10:55:19;2.00;;;1.80;;
42886;SDS011;29032;56.028;92.904;2023-03-11T11:00:27;1.47;;;1.37;;
42886;SDS011;29032;56.028;92.904;2023-03-11T11:05:32;2.40;;;1.77;;
42886;SDS011;29032;56.028;92.904;2023-03-11T11:10:35;1.93;;;1.70;;
42886;SDS011;29032;56.028;92.904;2023-03-11T11:15:38;2.63;;;1.87;;
42886;SDS011;29032;56.028;92.904;2023-03-11T11:20:51;1.90;;;1.70;;
42886;SDS011;29032;56.028;92.904;2023-03-11T11:26:00;2.22;;;2.03;;
42886;SDS011;29032;56.028;92.904;2023-03-11T11:31:03;2.00;;;1.90;;
42886;SDS011;29032;56.028;92.904;2023-03-11T11:36:21;2.10;;;1.70;;
42886;SDS011;29032;56.028;92.904;2023-03-11T11:41:26;2.57;;;2.00;;
42886;SDS011;29032;56.028;92.904;2023-03-11T11:46:33;2.40;;;2.20;;
42886;SDS011;29032;56.028;92.904;2023-03-11T11:51:43;2.93;;;2.30;;
42886;SDS011;29032;56.028;92.904;2023-03-11T11:56:52;2.10;;;1.90;;
42886;SDS011;29032;56.028;92.904;2023-03-11T12:01:58;5.60;;;2.40;;
42886;SDS011;29032;56.028;92.904;2023-03-11T12:07:17;2.60;;;2.30;;
42886;SDS011;29032;56.028;92.904;2023-03-11T12:12:28;3.50;;;2.30;;
42886;SDS011;29032;56.028;92.904;2023-03-11T12:17:37;4.10;;;3.10;;
42886;SDS011;29032;56.028;92.904;2023-03-11T12:28:18;4.63;;;3.30;;
42886;SDS011;29032;56.028;92.904;2023-03-11T12:33:27;6.33;;;3.10;;
42886;SDS011;29032;56.028;92.904;2023-03-11T12:38:35;4.07;;;3.27;;
42886;SDS011;29032;56.028;92.904;2023-03-11T12:43:58;5.22;;;3.97;;
42886;SDS011;29032;56.028;92.904;2023-03-11T12:49:10;5.77;;;4.70;;
42886;SDS011;29032;56.028;92.904;2023-03-11T12:54:21;10.50;;;6.33;;
42886;SDS011;29032;56.028;92.904;2023-03-11T12:59:52;13.07;;;8.30;;
42886;SDS011;29032;56.028;92.904;2023-03-11T13:05:04;14.80;;;8.80;;
42886;SDS011;29032;56.028;92.904;2023-03-11T13:10:32;13.67;;;9.17;;
42886;SDS011;29032;56.028;92.904;2023-03-11T13:15:36;13.20;;;9.67;;
42886;SDS011;29032;56.028;92.904;2023-03-11T13:20:42;27.57;;;16.87;;
42886;SDS011;29032;56.028;92.904;2023-03-11T13:26:00;29.17;;;19.07;;
42886;SDS011;29032;56.028;92.904;2023-03-11T13:31:16;36.53;;;20.53;;
42886;SDS011;29032;56.028;92.904;2023-03-11T13:36:38;31.67;;;19.63;;
42886;SDS011;29032;56.028;92.904;2023-03-11T13:41:50;36.37;;;21.10;;
42886;SDS011;29032;56.028;92.904;2023-03-11T13:46:55;50.67;;;27.87;;
42886;SDS011;29032;56.028;92.904;2023-03-11T13:52:01;38.90;;;22.80;;
42886;SDS011;29032;56.028;92.904;2023-03-11T14:02:30;29.40;;;18.43;;
42886;SDS011;29032;56.028;92.904;2023-03-11T14:07:33;30.07;;;17.23;;
42886;SDS011;29032;56.028;92.904;2023-03-11T14:12:37;26.43;;;16.20;;
42886;SDS011;29032;56.028;92.904;2023-03-11T14:17:39;24.77;;;15.30;;
42886;SDS011;29032;56.028;92.904;2023-03-11T14:22:44;23.70;;;14.33;;
42886;SDS011;29032;56.028;92.904;2023-03-11T14:27:54;30.88;;;21.35;;
42886;SDS011;29032;56.028;92.904;2023-03-11T14:32:58;34.03;;;23.00;;
42886;SDS011;29032;56.028;92.904;2023-03-11T14:38:02;38.33;;;25.10;;
42886;SDS011;29032;56.028;92.904;2023-03-11T14:43:21;40.73;;;24.83;;
42886;SDS011;29032;56.028;92.904;2023-03-11T14:48:24;34.07;;;22.40;;
42886;SDS011;29032;56.028;92.904;2023-03-11T14:53:30;35.03;;;20.73;;
42886;SDS011;29032;56.028;92.904;2023-03-11T14:58:38;30.30;;;18.37;;
42886;SDS011;29032;56.028;92.904;2023-03-11T15:03:44;28.43;;;18.60;;
42886;SDS011;29032;56.028;92.904;2023-03-11T15:08:49;29.97;;;17.53;;
42886;SDS011;29032;56.028;92.904;2023-03-11T15:14:08;27.73;;;17.23;;
42886;SDS011;29032;56.028;92.904;2023-03-11T15:19:21;25.07;;;16.13;;
42886;SDS011;29032;56.028;92.904;2023-03-11T15:24:31;27.33;;;15.67;;
42886;SDS011;29032;56.028;92.904;2023-03-11T15:29:37;28.43;;;14.50;;
42886;SDS011;29032;56.028;92.904;2023-03-11T15:34:39;18.87;;;13.00;;
42886;SDS011;29032;56.028;92.904;2023-03-11T15:39:42;17.17;;;11.80;;
42886;SDS011;29032;56.028;92.904;2023-03-11T15:45:02;18.33;;;12.13;;
42886;SDS011;29032;56.028;92.904;2023-03-11T15:55:33;21.37;;;12.07;;
42886;SDS011;29032;56.028;92.904;2023-03-11T16:00:44;22.47;;;12.90;;
42886;SDS011;29032;56.028;92.904;2023-03-11T16:05:48;20.80;;;12.10;;
42886;SDS011;29032;56.028;92.904;2023-03-11T16:10:50;25.80;;;14.40;;
42886;SDS011;29032;56.028;92.904;2023-03-11T16:15:54;23.03;;;13.07;;
42886;SDS011;29032;56.028;92.904;2023-03-11T16:20:56;21.77;;;12.47;;
42886;SDS011;29032;56.028;92.904;2023-03-11T16:25:58;20.37;;;13.27;;
42886;SDS011;29032;56.028;92.904;2023-03-11T16:31:04;23.03;;;13.80;;
42886;SDS011;29032;56.028;92.904;2023-03-11T16:36:08;22.13;;;13.23;;
42886;SDS011;29032;56.028;92.904;2023-03-11T16:41:11;25.43;;;13.30;;
42886;SDS011;29032;56.028;92.904;2023-03-11T16:46:15;23.27;;;12.97;;
42886;SDS011;29032;56.028;92.904;2023-03-11T16:51:17;26.20;;;15.73;;
42886;SDS011;29032;56.028;92.904;2023-03-11T16:56:19;22.13;;;15.53;;
42886;SDS011;29032;56.028;92.904;2023-03-11T17:01:23;25.83;;;17.37;;
42886;SDS011;29032;56.028;92.904;2023-03-11T17:06:25;28.43;;;17.67;;
42886;SDS011;29032;56.028;92.904;2023-03-11T17:11:27;26.60;;;18.00;;
42886;SDS011;29032;56.028;92.904;2023-03-11T17:16:31;28.20;;;18.23;;
42886;SDS011;29032;56.028;92.904;2023-03-11T17:21:34;24.37;;;17.20;;
42886;SDS011;29032;56.028;92.904;2023-03-11T17:26:36;26.33;;;17.33;;
42886;SDS011;29032;56.028;92.904;2023-03-11T17:31:40;24.37;;;16.27;;
42886;SDS011;29032;56.028;92.904;2023-03-11T17:36:42;26.80;;;15.80;;
42886;SDS011;29032;56.028;92.904;2023-03-11T17:41:45;25.80;;;17.30;;
42886;SDS011;29032;56.028;92.904;2023-03-11T17:46:48;32.50;;;18.70;;
42886;SDS011;29032;56.028;92.904;2023-03-11T17:51:50;34.90;;;19.07;;
42886;SDS011;29032;56.028;92.904;2023-03-11T17:56:53;35.60;;;17.87;;
42886;SDS011;29032;56.028;92.904;2023-03-11T18:01:57;33.77;;;18.67;;
42886;SDS011;29032;56.028;92.904;2023-03-11T18:06:59;37.13;;;19.27;;
42886;SDS011;29032;56.028;92.904;2023-03-11T18:12:01;34.17;;;19.77;;
42886;SDS011;29032;56.028;92.904;2023-03-11T18:17:05;30.50;;;18.77;;
42886;SDS011;29032;56.028;92.904;2023-03-11T18:22:07;38.03;;;20.93;;
42886;SDS011;29032;56.028;92.904;2023-03-11T18:27:09;36.43;;;20.03;;
42886;SDS011;29032;56.028;92.904;2023-03-11T18:32:12;36.30;;;21.73;;
42886;SDS011;29032;56.028;92.904;2023-03-11T18:37:14;37.43;;;21.30;;
42886;SDS011;29032;56.028;92.904;2023-03-11T18:42:17;45.60;;;24.17;;
42886;SDS011;29032;56.028;92.904;2023-03-11T18:47:20;47.43;;;25.20;;
42886;SDS011;29032;56.028;92.904;2023-03-11T18:52:22;53.90;;;27.63;;
42886;SDS011;29032;56.028;92.904;2023-03-11T18:57:25;88.93;;;42.23;;
42886;SDS011;29032;56.028;92.904;2023-03-11T19:02:29;83.17;;;40.37;;
42886;SDS011;29032;56.028;92.904;2023-03-11T19:07:31;89.30;;;43.43;;
42886;SDS011;29032;56.028;92.904;2023-03-11T19:12:33;97.50;;;48.60;;
42886;SDS011;29032;56.028;92.904;2023-03-11T19:17:36;120.40;;;56.80;;
42886;SDS011;29032;56.028;92.904;2023-03-11T19:22:38;113.63;;;55.27;;
42886;SDS011;29032;56.028;92.904;2023-03-11T19:27:41;109.63;;;54.90;;
42886;SDS011;29032;56.028;92.904;2023-03-11T19:32:44;119.10;;;56.70;;
42886;SDS011;29032;56.028;92.904;2023-03-11T19:37:47;96.90;;;46.37;;
42886;SDS011;29032;56.028;92.904;2023-03-11T19:42:49;77.23;;;39.80;;
42886;SDS011;29032;56.028;92.904;2023-03-11T19:47:53;72.43;;;35.63;;
42886;SDS011;29032;56.028;92.904;2023-03-11T19:52:55;57.90;;;30.53;;
42886;SDS011;29032;56.028;92.904;2023-03-11T19:57:57;48.07;;;26.40;;
42886;SDS011;29032;56.028;92.904;2023-03-11T20:03:01;47.53;;;24.93;;
42886;SDS011;29032;56.028;92.904;2023-03-11T20:08:04;39.23;;;22.97;;
42886;SDS011;29032;56.028;92.904;2023-03-11T20:13:07;45.73;;;21.33;;
42886;SDS011;29032;56.028;92.904;2023-03-11T20:18:10;37.47;;;19.13;;
42886;SDS011;29032;56.028;92.904;2023-03-11T20:23:13;36.10;;;18.93;;
42886;SDS011;29032;56.028;92.904;2023-03-11T20:28:15;34.90;;;19.77;;
42886;SDS011;29032;56.028;92.904;2023-03-11T20:33:18;30.87;;;17.70;;
42886;SDS011;29032;56.028;92.904;2023-03-11T20:38:20;35.03;;;17.13;;
42886;SDS011;29032;56.028;92.904;2023-03-11T20:43:23;22.97;;;13.90;;
42886;SDS011;29032;56.028;92.904;2023-03-11T20:48:26;16.00;;;9.33;;
42886;SDS011;29032;56.028;92.904;2023-03-11T20:53:29;11.00;;;6.43;;
42886;SDS011;29032;56.028;92.904;2023-03-11T20:58:31;8.97;;;5.77;;
42886;SDS011;29032;56.028;92.904;2023-03-11T21:03:35;5.87;;;4.00;;
42886;SDS011;29032;56.028;92.904;2023-03-11T21:08:37;5.57;;;3.67;;
42886;SDS011;29032;56.028;92.904;2023-03-11T21:13:39;4.03;;;3.33;;
42886;SDS011;29032;56.028;92.904;2023-03-11T21:18:43;3.47;;;2.43;;
42886;SDS011;29032;56.028;92.904;2023-03-11T21:23:46;3.20;;;2.20;;
42886;SDS011;29032;56.028;92.904;2023-03-11T21:28:48;2.57;;;2.37;;
42886;SDS011;29032;56.028;92.904;2023-03-11T21:33:52;2.20;;;2.00;;
42886;SDS011;29032;56.028;92.904;2023-03-11T21:38:55;2.07;;;1.97;;
42886;SDS011;29032;56.028;92.904;2023-03-11T21:43:57;2.20;;;2.00;;
42886;SDS011;29032;56.028;92.904;2023-03-11T21:49:01;1.93;;;1.80;;
42886;SDS011;29032;56.028;92.904;2023-03-11T21:54:03;1.90;;;1.70;;
42886;SDS011;29032;56.028;92.904;2023-03-11T21:59:05;1.87;;;1.63;;
42886;SDS011;29032;56.028;92.904;2023-03-11T22:04:09;2.37;;;1.60;;
42886;SDS011;29032;56.028;92.904;2023-03-11T22:09:11;2.00;;;1.80;;
42886;SDS011;29032;56.028;92.904;2023-03-11T22:14:13;2.00;;;1.80;;
42886;SDS011;29032;56.028;92.904;2023-03-11T22:19:17;1.60;;;1.50;;
42886;SDS011;29032;56.028;92.904;2023-03-11T22:24:19;1.67;;;1.50;;
42886;SDS011;29032;56.028;92.904;2023-03-11T22:29:21;1.60;;;1.50;;
42886;SDS011;29032;56.028;92.904;2023-03-11T22:34:25;2.20;;;1.97;;
42886;SDS011;29032;56.028;92.904;2023-03-11T22:39:27;1.70;;;1.60;;
42886;SDS011;29032;56.028;92.904;2023-03-11T22:44:29;1.60;;;1.50;;
42886;SDS011;29032;56.028;92.904;2023-03-11T22:49:32;1.70;;;1.60;;
42886;SDS011;29032;56.028;92.904;2023-03-11T22:54:35;1.87;;;1.40;;
42886;SDS011;29032;56.028;92.904;2023-03-11T22:59:37;4.57;;;1.80;;
42886;SDS011;29032;56.028;92.904;2023-03-11T23:04:44;1.40;;;1.30;;
42886;SDS011;29032;56.028;92.904;2023-03-11T23:09:46;1.80;;;1.50;;
42886;SDS011;29032;56.028;92.904;2023-03-11T23:14:48;1.90;;;1.70;;
42886;SDS011;29032;56.028;92.904;2023-03-11T23:19:52;2.57;;;1.73;;
42886;SDS011;29032;56.028;92.904;2023-03-11T23:24:54;2.47;;;1.90;;
42886;SDS011;29032;56.028;92.904;2023-03-11T23:29:56;2.60;;;1.70;;
42886;SDS011;29032;56.028;92.904;2023-03-11T23:34:59;1.93;;;1.60;;
42886;SDS011;29032;56.028;92.904;2023-03-11T23:40:02;1.93;;;1.53;;
42886;SDS011;29032;56.028;92.904;2023-03-11T23:45:06;1.97;;;1.67;;
42886;SDS011;29032;56.028;92.904;2023-03-11T23:50:11;2.50;;;1.77;;
42886;SDS011;29032;56.028;92.904;2023-03-11T23:55:13;2.10;;;1.50;;
